YSWG/WGA METAR and TAF weather

Enter ICAO airport designator
Station Type Date Time Source
YSWG METAR 2020/07/14 22:00 UTC NOAA

YSWG 142200Z AUTO 00000KT 9999 // NCD 01/01 Q1022


Station Type Date Time Source
YSWG Decoded METAR 2020/07/14 22:00 UTC NOAA

Wagga Airport, Australia (YSWG) 35-09S 147-27E 213M
Jul 14, 2020 - 06:00 PM EDT / 2020.07.14 2200 UTC
Wind: Calm:0
Visibility: greater than 7 mile(s):0
Temperature: 33 F (1 C)
Dew Point: 33 F (1 C)
Relative Humidity: 100%
Pressure (altimeter): 30.18 in. Hg (1022 hPa)
ob: YSWG 142200Z AUTO 00000KT 9999 // NCD 01/01 Q1022
cycle: 22

Station Type Date Time Source
YSWG TAF 2018/05/25 18:03 UTC NOAA

TAF YSWG 251649Z 2518/2608 07008KT CAVOK

Example: see airport list